DLH2021 EGLL-EDDK
Flight info
| Callsign | DLH2021 |
|---|---|
| Flight time | 0h 54m |
| Altitude | 33000 |
| Route | DET L6 DVR UL9 KONAN DCT KOK UL607 SPI T857 DENOV T861 ERUKI T856 DEPOK |
| Aircraft | A20N/M-SDE2E3FGHIRWXY/LB1 |
Departure
| Time | 2026-04-22 07:41 |
|---|---|
| Airport | London Heathrow Airport (EGLL) |
Arrival
| Time | 2026-04-22 08:35 |
|---|---|
| Airport | Cologne Bonn Airport (EDDK) |
| Time | Latitude | Longitude | Altitude | Speed | Heading |
|---|---|---|---|---|---|
| 2026-04-22 07:16 | 51.46927 | -0.48649 | 76 ft | 0 kts | 0° |
| 2026-04-22 07:35 | 51.46926 | -0.48649 | 76 ft | 1 kts | 0° |
| 2026-04-22 07:36 | 51.46911 | -0.48648 | 76 ft | 2 kts | 360° |
| 2026-04-22 07:36 | 51.46896 | -0.48648 | 76 ft | 2 kts | 360° |
| 2026-04-22 07:36 | 51.46882 | -0.48655 | 76 ft | 2 kts | 45° |
| 2026-04-22 07:36 | 51.46875 | -0.48675 | 76 ft | 0 kts | 84° |
| 2026-04-22 07:37 | 51.46875 | -0.48684 | 76 ft | 1 kts | 94° |
| 2026-04-22 07:37 | 51.46875 | -0.48689 | 76 ft | 0 kts | 90° |
| 2026-04-22 07:39 | 51.46875 | -0.48636 | 76 ft | 9 kts | 91° |
| 2026-04-22 07:39 | 51.46875 | -0.48521 | 76 ft | 11 kts | 97° |
| 2026-04-22 07:39 | 51.46812 | -0.48470 | 77 ft | 12 kts | 180° |
| 2026-04-22 07:40 | 51.46722 | -0.48471 | 76 ft | 10 kts | 180° |
| 2026-04-22 07:40 | 51.46639 | -0.48469 | 76 ft | 12 kts | 179° |
| 2026-04-22 07:40 | 51.46542 | -0.48466 | 76 ft | 14 kts | 179° |
| 2026-04-22 07:40 | 51.46481 | -0.48404 | 76 ft | 10 kts | 102° |
| 2026-04-22 07:41 | 51.46481 | -0.48147 | 76 ft | 46 kts | 89° |
| 2026-04-22 07:41 | 51.46483 | -0.47129 | 77 ft | 132 kts | 89° |
| 2026-04-22 07:41 | 51.46477 | -0.45529 | 686 ft | 150 kts | 89° |
| 2026-04-22 07:41 | 51.46491 | -0.43956 | 1779 ft | 144 kts | 89° |
| 2026-04-22 07:42 | 51.46515 | -0.42427 | 2774 ft | 146 kts | 90° |
| 2026-04-22 07:42 | 51.46290 | -0.40792 | 3505 ft | 166 kts | 114° |
| 2026-04-22 07:42 | 51.45519 | -0.39252 | 4239 ft | 191 kts | 127° |
| 2026-04-22 07:42 | 51.44821 | -0.37419 | 5095 ft | 204 kts | 109° |
| 2026-04-22 07:43 | 51.44398 | -0.35147 | 5804 ft | 228 kts | 107° |
| 2026-04-22 07:43 | 51.43849 | -0.32718 | 6659 ft | 245 kts | 110° |
| 2026-04-22 07:43 | 51.43235 | -0.30157 | 7780 ft | 250 kts | 110° |
| 2026-04-22 07:43 | 51.42645 | -0.27564 | 8917 ft | 254 kts | 106° |
| 2026-04-22 07:44 | 51.42240 | -0.24862 | 9933 ft | 260 kts | 101° |
| 2026-04-22 07:44 | 51.41873 | -0.22004 | 10937 ft | 267 kts | 101° |
| 2026-04-22 07:44 | 51.41475 | -0.19036 | 11637 ft | 284 kts | 102° |
| 2026-04-22 07:44 | 51.41029 | -0.15837 | 12219 ft | 304 kts | 102° |
| 2026-04-22 07:45 | 51.40579 | -0.12538 | 13183 ft | 308 kts | 102° |
| 2026-04-22 07:45 | 51.40132 | -0.09216 | 14174 ft | 311 kts | 102° |
| 2026-04-22 07:45 | 51.39673 | -0.05828 | 15036 ft | 317 kts | 101° |
| 2026-04-22 07:45 | 51.39192 | -0.02349 | 15774 ft | 326 kts | 101° |
| 2026-04-22 07:46 | 51.38703 | 0.01179 | 16547 ft | 332 kts | 101° |
| 2026-04-22 07:46 | 51.38207 | 0.04775 | 17296 ft | 339 kts | 101° |
| 2026-04-22 07:46 | 51.37697 | 0.08475 | 18061 ft | 344 kts | 101° |
| 2026-04-22 07:46 | 51.37168 | 0.12242 | 18812 ft | 349 kts | 101° |
| 2026-04-22 07:47 | 51.36628 | 0.16060 | 19493 ft | 356 kts | 100° |
| 2026-04-22 07:47 | 51.36082 | 0.19927 | 20141 ft | 362 kts | 100° |
| 2026-04-22 07:47 | 51.35530 | 0.23836 | 20771 ft | 369 kts | 99° |
| 2026-04-22 07:47 | 51.34957 | 0.27885 | 21383 ft | 376 kts | 99° |
| 2026-04-22 07:48 | 51.34380 | 0.31950 | 22014 ft | 381 kts | 99° |
| 2026-04-22 07:48 | 51.33795 | 0.36067 | 22620 ft | 387 kts | 98° |
| 2026-04-22 07:48 | 51.33197 | 0.40256 | 23214 ft | 392 kts | 98° |
| 2026-04-22 07:48 | 51.32588 | 0.44510 | 23799 ft | 397 kts | 98° |
| 2026-04-22 07:49 | 51.31963 | 0.48868 | 24395 ft | 403 kts | 98° |
| 2026-04-22 07:49 | 51.31342 | 0.53209 | 24968 ft | 408 kts | 98° |
| 2026-04-22 07:49 | 51.30703 | 0.57641 | 25498 ft | 414 kts | 98° |
| 2026-04-22 07:49 | 51.29981 | 0.62074 | 26009 ft | 421 kts | 101° |
| 2026-04-22 07:50 | 51.29163 | 0.66604 | 26566 ft | 426 kts | 102° |
| 2026-04-22 07:50 | 51.28327 | 0.71163 | 27096 ft | 430 kts | 102° |
| 2026-04-22 07:50 | 51.27483 | 0.75741 | 27592 ft | 435 kts | 102° |
| 2026-04-22 07:50 | 51.26632 | 0.80362 | 28067 ft | 440 kts | 103° |
| 2026-04-22 07:51 | 51.25760 | 0.85082 | 28529 ft | 445 kts | 102° |
| 2026-04-22 07:51 | 51.24890 | 0.89788 | 28983 ft | 449 kts | 102° |
| 2026-04-22 07:51 | 51.24001 | 0.94595 | 29411 ft | 454 kts | 102° |
| 2026-04-22 07:51 | 51.23107 | 0.99413 | 29808 ft | 459 kts | 102° |
| 2026-04-22 07:52 | 51.22187 | 1.04354 | 30230 ft | 464 kts | 102° |
| 2026-04-22 07:52 | 51.21266 | 1.09295 | 30650 ft | 467 kts | 102° |
| 2026-04-22 07:52 | 51.20351 | 1.14193 | 31049 ft | 471 kts | 102° |
| 2026-04-22 07:52 | 51.19417 | 1.19175 | 31464 ft | 473 kts | 103° |
| 2026-04-22 07:53 | 51.18466 | 1.24233 | 31888 ft | 474 kts | 103° |
| 2026-04-22 07:53 | 51.17543 | 1.29223 | 32270 ft | 476 kts | 101° |
| 2026-04-22 07:53 | 51.16763 | 1.34316 | 32628 ft | 476 kts | 97° |
| 2026-04-22 07:53 | 51.16174 | 1.39507 | 33015 ft | 475 kts | 94° |
| 2026-04-22 07:54 | 51.15795 | 1.44694 | 33289 ft | 474 kts | 90° |
| 2026-04-22 07:54 | 51.15535 | 1.49944 | 33307 ft | 474 kts | 89° |
| 2026-04-22 07:54 | 51.15062 | 1.60323 | 33312 ft | 472 kts | 89° |
| 2026-04-22 07:55 | 51.14565 | 1.70730 | 33309 ft | 473 kts | 90° |
| 2026-04-22 07:55 | 51.14047 | 1.81130 | 33311 ft | 473 kts | 90° |
| 2026-04-22 07:56 | 51.13516 | 1.91537 | 33311 ft | 473 kts | 90° |
| 2026-04-22 07:56 | 51.12976 | 2.01927 | 33312 ft | 472 kts | 90° |
| 2026-04-22 07:57 | 51.12428 | 2.12238 | 33312 ft | 469 kts | 90° |
| 2026-04-22 07:57 | 51.11872 | 2.22513 | 33316 ft | 466 kts | 90° |
| 2026-04-22 07:58 | 51.11314 | 2.32712 | 33312 ft | 464 kts | 90° |
| 2026-04-22 07:58 | 51.10737 | 2.42898 | 33321 ft | 463 kts | 91° |
| 2026-04-22 07:59 | 51.10165 | 2.53087 | 33313 ft | 462 kts | 91° |
| 2026-04-22 07:59 | 51.09436 | 2.63240 | 33317 ft | 463 kts | 95° |
| 2026-04-22 08:00 | 51.08030 | 2.73180 | 33314 ft | 463 kts | 103° |
| 2026-04-22 08:00 | 51.06242 | 2.83011 | 33317 ft | 464 kts | 103° |
| 2026-04-22 08:01 | 51.04453 | 2.92767 | 33313 ft | 462 kts | 103° |
| 2026-04-22 08:01 | 51.02660 | 3.02544 | 33315 ft | 461 kts | 103° |
| 2026-04-22 08:02 | 51.00878 | 3.12224 | 33312 ft | 461 kts | 103° |
| 2026-04-22 08:02 | 50.99075 | 3.21977 | 33310 ft | 460 kts | 104° |
| 2026-04-22 08:03 | 50.97279 | 3.31638 | 33309 ft | 459 kts | 103° |
| 2026-04-22 08:03 | 50.95466 | 3.41340 | 33315 ft | 459 kts | 103° |
| 2026-04-22 08:04 | 50.93662 | 3.50964 | 33314 ft | 458 kts | 103° |
| 2026-04-22 08:04 | 50.91842 | 3.60606 | 33318 ft | 457 kts | 103° |
| 2026-04-22 08:05 | 50.90003 | 3.70232 | 33312 ft | 456 kts | 104° |
| 2026-04-22 08:05 | 50.88148 | 3.79822 | 33321 ft | 454 kts | 104° |
| 2026-04-22 08:06 | 50.86301 | 3.89333 | 33309 ft | 454 kts | 104° |
| 2026-04-22 08:06 | 50.84454 | 3.98816 | 33318 ft | 454 kts | 104° |
| 2026-04-22 08:07 | 50.82584 | 4.08371 | 33318 ft | 454 kts | 104° |
| 2026-04-22 08:07 | 50.80722 | 4.17841 | 33308 ft | 454 kts | 104° |
| 2026-04-22 08:08 | 50.78845 | 4.27334 | 33324 ft | 453 kts | 104° |
| 2026-04-22 08:08 | 50.76969 | 4.36772 | 33322 ft | 452 kts | 104° |
| 2026-04-22 08:09 | 50.75089 | 4.46210 | 33336 ft | 451 kts | 104° |
| 2026-04-22 08:09 | 50.73200 | 4.55626 | 33321 ft | 451 kts | 104° |
| 2026-04-22 08:10 | 50.71320 | 4.65091 | 33309 ft | 452 kts | 104° |
| 2026-04-22 08:10 | 50.69503 | 4.74523 | 33309 ft | 452 kts | 104° |
| 2026-04-22 08:11 | 50.68587 | 4.79251 | 33174 ft | 445 kts | 104° |
| 2026-04-22 08:11 | 50.67690 | 4.83849 | 32622 ft | 441 kts | 104° |
| 2026-04-22 08:11 | 50.66789 | 4.88456 | 31941 ft | 438 kts | 104° |
| 2026-04-22 08:11 | 50.65901 | 4.92966 | 31352 ft | 433 kts | 104° |
| 2026-04-22 08:12 | 50.64993 | 4.97419 | 30784 ft | 428 kts | 105° |
| 2026-04-22 08:12 | 50.64082 | 5.01833 | 30261 ft | 421 kts | 105° |
| 2026-04-22 08:12 | 50.63191 | 5.06145 | 29856 ft | 415 kts | 105° |
| 2026-04-22 08:12 | 50.62295 | 5.10489 | 29465 ft | 413 kts | 105° |
| 2026-04-22 08:13 | 50.61419 | 5.14727 | 29079 ft | 410 kts | 105° |
| 2026-04-22 08:13 | 50.60540 | 5.18979 | 28726 ft | 408 kts | 105° |
| 2026-04-22 08:13 | 50.59669 | 5.23182 | 28367 ft | 404 kts | 105° |
| 2026-04-22 08:13 | 50.58805 | 5.27344 | 27999 ft | 400 kts | 105° |
| 2026-04-22 08:14 | 50.57946 | 5.31474 | 27635 ft | 397 kts | 105° |
| 2026-04-22 08:14 | 50.57086 | 5.35605 | 27271 ft | 394 kts | 105° |
| 2026-04-22 08:14 | 50.56246 | 5.39630 | 26912 ft | 390 kts | 105° |
| 2026-04-22 08:14 | 50.55399 | 5.43679 | 26546 ft | 387 kts | 105° |
| 2026-04-22 08:15 | 50.54568 | 5.47644 | 26188 ft | 384 kts | 105° |
| 2026-04-22 08:15 | 50.53731 | 5.51623 | 25797 ft | 382 kts | 105° |
| 2026-04-22 08:15 | 50.52910 | 5.55521 | 25385 ft | 379 kts | 105° |
| 2026-04-22 08:15 | 50.52189 | 5.59481 | 24957 ft | 373 kts | 97° |
| 2026-04-22 08:16 | 50.52056 | 5.63486 | 24540 ft | 367 kts | 84° |
| 2026-04-22 08:16 | 50.52520 | 5.67395 | 24041 ft | 362 kts | 73° |
| 2026-04-22 08:16 | 50.53289 | 5.71144 | 23509 ft | 358 kts | 71° |
| 2026-04-22 08:16 | 50.54069 | 5.74792 | 23060 ft | 352 kts | 71° |
| 2026-04-22 08:17 | 50.54839 | 5.78396 | 22654 ft | 347 kts | 71° |
| 2026-04-22 08:17 | 50.55591 | 5.81935 | 22257 ft | 341 kts | 71° |
| 2026-04-22 08:17 | 50.56334 | 5.85447 | 21827 ft | 337 kts | 71° |
| 2026-04-22 08:17 | 50.57062 | 5.88905 | 21406 ft | 333 kts | 71° |
| 2026-04-22 08:18 | 50.57788 | 5.92367 | 20995 ft | 330 kts | 71° |
| 2026-04-22 08:18 | 50.58493 | 5.95746 | 20601 ft | 326 kts | 71° |
| 2026-04-22 08:18 | 50.59192 | 5.99095 | 20197 ft | 323 kts | 71° |
| 2026-04-22 08:18 | 50.59891 | 6.02449 | 19784 ft | 321 kts | 71° |
| 2026-04-22 08:19 | 50.60583 | 6.05779 | 19368 ft | 318 kts | 71° |
| 2026-04-22 08:19 | 50.61261 | 6.09051 | 18951 ft | 316 kts | 71° |
| 2026-04-22 08:19 | 50.61936 | 6.12315 | 18534 ft | 314 kts | 71° |
| 2026-04-22 08:19 | 50.62607 | 6.15560 | 18132 ft | 311 kts | 71° |
| 2026-04-22 08:20 | 50.63193 | 6.18828 | 17712 ft | 310 kts | 77° |
| 2026-04-22 08:20 | 50.63466 | 6.22161 | 17292 ft | 308 kts | 85° |
| 2026-04-22 08:20 | 50.63434 | 6.25518 | 16875 ft | 307 kts | 91° |
| 2026-04-22 08:20 | 50.63283 | 6.28834 | 16462 ft | 305 kts | 92° |
| 2026-04-22 08:21 | 50.63114 | 6.32169 | 16047 ft | 303 kts | 92° |
| 2026-04-22 08:21 | 50.62947 | 6.35445 | 15640 ft | 301 kts | 92° |
| 2026-04-22 08:21 | 50.62776 | 6.38718 | 15227 ft | 299 kts | 92° |
| 2026-04-22 08:21 | 50.62608 | 6.41943 | 14822 ft | 298 kts | 92° |
| 2026-04-22 08:22 | 50.62641 | 6.45201 | 14405 ft | 297 kts | 77° |
| 2026-04-22 08:22 | 50.63472 | 6.48106 | 13993 ft | 292 kts | 53° |
| 2026-04-22 08:22 | 50.64972 | 6.50212 | 13587 ft | 290 kts | 36° |
| 2026-04-22 08:22 | 50.66666 | 6.51896 | 13179 ft | 286 kts | 33° |
| 2026-04-22 08:23 | 50.68362 | 6.53473 | 12770 ft | 283 kts | 33° |
| 2026-04-22 08:23 | 50.70027 | 6.54994 | 12298 ft | 274 kts | 33° |
| 2026-04-22 08:23 | 50.71650 | 6.56459 | 11815 ft | 265 kts | 33° |
| 2026-04-22 08:23 | 50.73257 | 6.57896 | 11329 ft | 263 kts | 33° |
| 2026-04-22 08:24 | 50.74835 | 6.59298 | 10851 ft | 263 kts | 33° |
| 2026-04-22 08:24 | 50.76424 | 6.60708 | 10372 ft | 263 kts | 33° |
| 2026-04-22 08:24 | 50.78022 | 6.62124 | 9892 ft | 264 kts | 33° |
| 2026-04-22 08:24 | 50.79621 | 6.63541 | 9414 ft | 264 kts | 33° |
| 2026-04-22 08:25 | 50.81199 | 6.64945 | 8941 ft | 264 kts | 33° |
| 2026-04-22 08:25 | 50.82812 | 6.66384 | 8456 ft | 265 kts | 33° |
| 2026-04-22 08:25 | 50.84405 | 6.67809 | 8063 ft | 261 kts | 33° |
| 2026-04-22 08:25 | 50.85967 | 6.69208 | 7759 ft | 255 kts | 33° |
| 2026-04-22 08:26 | 50.87484 | 6.70563 | 7458 ft | 250 kts | 33° |
| 2026-04-22 08:26 | 50.88992 | 6.71903 | 7151 ft | 245 kts | 33° |
| 2026-04-22 08:26 | 50.90458 | 6.73206 | 6844 ft | 241 kts | 33° |
| 2026-04-22 08:26 | 50.91901 | 6.74492 | 6547 ft | 235 kts | 33° |
| 2026-04-22 08:27 | 50.93282 | 6.75718 | 6289 ft | 224 kts | 33° |
| 2026-04-22 08:27 | 50.94628 | 6.76911 | 6034 ft | 219 kts | 33° |
| 2026-04-22 08:27 | 50.95952 | 6.78084 | 5777 ft | 215 kts | 33° |
| 2026-04-22 08:27 | 50.97239 | 6.79229 | 5521 ft | 213 kts | 33° |
| 2026-04-22 08:28 | 50.98529 | 6.80379 | 5261 ft | 210 kts | 33° |
| 2026-04-22 08:28 | 50.99780 | 6.81500 | 5002 ft | 208 kts | 33° |
| 2026-04-22 08:28 | 51.01039 | 6.82635 | 4747 ft | 206 kts | 33° |
| 2026-04-22 08:28 | 51.02258 | 6.83806 | 4494 ft | 203 kts | 43° |
| 2026-04-22 08:29 | 51.03009 | 6.85588 | 4226 ft | 197 kts | 77° |
| 2026-04-22 08:29 | 51.02992 | 6.87705 | 4006 ft | 188 kts | 99° |
| 2026-04-22 08:29 | 51.02705 | 6.89684 | 4059 ft | 185 kts | 102° |
| 2026-04-22 08:29 | 51.02217 | 6.91574 | 4107 ft | 188 kts | 117° |
| 2026-04-22 08:30 | 51.01430 | 6.93236 | 3862 ft | 185 kts | 128° |
| 2026-04-22 08:30 | 51.00557 | 6.94691 | 3598 ft | 181 kts | 131° |
| 2026-04-22 08:30 | 50.99670 | 6.96067 | 3342 ft | 177 kts | 133° |
| 2026-04-22 08:30 | 50.98796 | 6.97367 | 3098 ft | 173 kts | 133° |
| 2026-04-22 08:31 | 50.97917 | 6.98649 | 2860 ft | 168 kts | 134° |
| 2026-04-22 08:31 | 50.97081 | 6.99854 | 2626 ft | 156 kts | 134° |
| 2026-04-22 08:31 | 50.95593 | 7.01998 | 2269 ft | 137 kts | 134° |
| 2026-04-22 08:32 | 50.94920 | 7.02966 | 2077 ft | 127 kts | 133° |
| 2026-04-22 08:32 | 50.94274 | 7.03902 | 1916 ft | 127 kts | 133° |
| 2026-04-22 08:32 | 50.93627 | 7.04846 | 1773 ft | 127 kts | 134° |
| 2026-04-22 08:32 | 50.92969 | 7.05772 | 1605 ft | 127 kts | 134° |
| 2026-04-22 08:33 | 50.92316 | 7.06732 | 1412 ft | 127 kts | 133° |
| 2026-04-22 08:33 | 50.91662 | 7.07688 | 1221 ft | 127 kts | 133° |
| 2026-04-22 08:33 | 50.91011 | 7.08632 | 1042 ft | 128 kts | 134° |
| 2026-04-22 08:33 | 50.90353 | 7.09568 | 888 ft | 128 kts | 134° |
| 2026-04-22 08:34 | 50.89693 | 7.10529 | 717 ft | 128 kts | 134° |
| 2026-04-22 08:34 | 50.89037 | 7.11472 | 547 ft | 129 kts | 134° |
| 2026-04-22 08:34 | 50.88372 | 7.12435 | 375 ft | 129 kts | 134° |
| 2026-04-22 08:34 | 50.87722 | 7.13374 | 257 ft | 122 kts | 135° |
| 2026-04-22 08:35 | 50.87162 | 7.14189 | 254 ft | 88 kts | 137° |
| 2026-04-22 08:35 | 50.86818 | 7.14680 | 264 ft | 50 kts | 136° |
| 2026-04-22 08:35 | 50.86597 | 7.15021 | 274 ft | 38 kts | 135° |
| 2026-04-22 08:35 | 50.86420 | 7.15237 | 279 ft | 27 kts | 155° |
| 2026-04-22 08:36 | 50.86254 | 7.15329 | 282 ft | 21 kts | 167° |
| 2026-04-22 08:36 | 50.86125 | 7.15351 | 283 ft | 18 kts | 192° |
| 2026-04-22 08:36 | 50.86047 | 7.15211 | 281 ft | 19 kts | 272° |
| 2026-04-22 08:36 | 50.86100 | 7.15047 | 280 ft | 16 kts | 322° |
| 2026-04-22 08:37 | 50.86192 | 7.14923 | 280 ft | 18 kts | 317° |
| 2026-04-22 08:37 | 50.86292 | 7.14780 | 277 ft | 21 kts | 316° |
| 2026-04-22 08:37 | 50.86401 | 7.14614 | 271 ft | 21 kts | 316° |
| 2026-04-22 08:37 | 50.86499 | 7.14475 | 267 ft | 11 kts | 317° |
| 2026-04-22 08:38 | 50.86562 | 7.14384 | 264 ft | 14 kts | 318° |
| 2026-04-22 08:38 | 50.86650 | 7.14256 | 259 ft | 19 kts | 317° |
| 2026-04-22 08:38 | 50.86769 | 7.14129 | 257 ft | 20 kts | 337° |
| 2026-04-22 08:38 | 50.86887 | 7.13982 | 253 ft | 22 kts | 317° |
| 2026-04-22 08:39 | 50.87006 | 7.13807 | 250 ft | 24 kts | 318° |
| 2026-04-22 08:39 | 50.87137 | 7.13616 | 246 ft | 26 kts | 315° |
| 2026-04-22 08:39 | 50.87275 | 7.13416 | 244 ft | 27 kts | 319° |
| 2026-04-22 08:39 | 50.87414 | 7.13213 | 244 ft | 27 kts | 315° |
| 2026-04-22 08:40 | 50.87552 | 7.13015 | 245 ft | 26 kts | 317° |
| 2026-04-22 08:40 | 50.87685 | 7.12819 | 247 ft | 25 kts | 318° |
| 2026-04-22 08:40 | 50.87821 | 7.12635 | 247 ft | 25 kts | 333° |
| 2026-04-22 08:40 | 50.87979 | 7.12595 | 245 ft | 22 kts | 328° |
| 2026-04-22 08:41 | 50.88054 | 7.12422 | 241 ft | 21 kts | 301° |
| 2026-04-22 08:41 | 50.88136 | 7.12245 | 234 ft | 16 kts | 312° |
| 2026-04-22 08:41 | 50.88190 | 7.12163 | 231 ft | 5 kts | 326° |
| 2026-04-22 08:41 | 50.88219 | 7.12167 | 231 ft | 3 kts | 35° |
| 2026-04-22 08:42 | 50.88237 | 7.12189 | 232 ft | 2 kts | 36° |
| 2026-04-22 08:42 | 50.88250 | 7.12204 | 233 ft | 0 kts | 36° |